This is the latest recevied weather packets stored in our database for station/object AE6BH. If no packets are shown the sender has not sent any weather packets the latest 10 day(s).
| Time | Temp. | Humidity | Pressure | Rain* | Wind** | Luminosity | Snow |
|---|---|---|---|---|---|---|---|
| 1777497682 | 22.78° C | 37% | 1015.6 hPa | 0 mm | - | 694 W/m² | - |
| 1777497379 | 23.89° C | 35% | 1015.7 hPa | 0 mm | - | 749 W/m² | - |
| 1777497075 | 23.89° C | 40% | 1015.7 hPa | 0 mm | - | 750 W/m² | - |
| 1777496772 | 23.33° C | 40% | 1015.7 hPa | 0 mm | - | 717 W/m² | - |
| 1777496469 | 23.33° C | 40% | 1015.8 hPa | 0 mm | - | 729 W/m² | - |
| 1777496165 | 23.33° C | 40% | 1015.6 hPa | 0 mm | - | 743 W/m² | - |
| 1777495861 | 22.78° C | 39% | 1015.5 hPa | 0 mm | - | 740 W/m² | - |
| 1777495557 | 22.78° C | 41% | 1015.7 hPa | 0 mm | - | 757 W/m² | - |
| 1777495253 | 22.22° C | 41% | 1015.2 hPa | 0 mm | - | 746 W/m² | - |
| 1777494951 | 23.89° C | 38% | 1015.3 hPa | 0 mm | - | 731 W/m² | - |
| 1777494648 | 24.44° C | 37% | 1015.3 hPa | 0 mm | - | 734 W/m² | - |
| 1777494345 | 23.89° C | 38% | 1015.6 hPa | 0 mm | - | 744 W/m² | - |
| 1777494041 | 24.44° C | 38% | 1016 hPa | 0 mm | - | 765 W/m² | - |
| 1777493739 | 23.89° C | 38% | 1015.8 hPa | 0 mm | - | 758 W/m² | - |
| 1777493437 | 22.78° C | 40% | 1015.8 hPa | 0 mm | - | 741 W/m² | - |
| 1777493133 | 22.78° C | 40% | 1015.9 hPa | 0 mm | - | 727 W/m² | - |
| 1777492830 | 23.89° C | 40% | 1016 hPa | 0 mm | - | 744 W/m² | - |
| 1777492526 | 23.33° C | 42% | 1016.1 hPa | 0 mm | - | 752 W/m² | - |
| 1777492222 | 23.89° C | 41% | 1015.9 hPa | 0 mm | - | 780 W/m² | - |
| 1777491920 | 23.33° C | 43% | 1015.8 hPa | 0 mm | - | 768 W/m² | - |
| 1777491616 | 23.33° C | 43% | 1016.1 hPa | 0 mm | - | 756 W/m² | - |
| 1777491313 | 23.33° C | 43% | 1016.3 hPa | 0 mm | - | 754 W/m² | - |
| 1777491010 | 23.33° C | 43% | 1016.4 hPa | 0 mm | - | 753 W/m² | - |
| 1777490706 | 23.33° C | 43% | 1016.1 hPa | 0 mm | - | 750 W/m² | - |
| 1777490403 | 23.33° C | 43% | 1016 hPa | 0 mm | - | 747 W/m² | - |
* Rain latest hour (hover to see other rain measurements)
** Current wind speed in m/s (hover to see current wind gust speed)